sensor_id;sensor_type;location;lat;lon;timestamp;P1;durP1;ratioP1;P2;durP2;ratioP2
3757;SDS011;1894;51.038;13.692;2023-06-14T00:01:51;2.70;;;2.03;;
3757;SDS011;1894;51.038;13.692;2023-06-14T00:04:19;3.80;;;2.37;;
3757;SDS011;1894;51.038;13.692;2023-06-14T00:06:47;2.87;;;2.30;;
3757;SDS011;1894;51.038;13.692;2023-06-14T00:09:20;2.53;;;2.07;;
3757;SDS011;1894;51.038;13.692;2023-06-14T00:11:47;4.57;;;2.07;;
3757;SDS011;1894;51.038;13.692;2023-06-14T00:14:14;4.40;;;2.60;;
3757;SDS011;1894;51.038;13.692;2023-06-14T00:16:41;2.73;;;1.70;;
3757;SDS011;1894;51.038;13.692;2023-06-14T00:19:11;3.20;;;2.43;;
3757;SDS011;1894;51.038;13.692;2023-06-14T00:21:38;2.77;;;2.53;;
3757;SDS011;1894;51.038;13.692;2023-06-14T00:24:06;2.23;;;1.80;;
3757;SDS011;1894;51.038;13.692;2023-06-14T00:26:34;3.23;;;2.50;;
3757;SDS011;1894;51.038;13.692;2023-06-14T00:29:02;6.27;;;2.37;;
3757;SDS011;1894;51.038;13.692;2023-06-14T00:31:29;2.10;;;1.90;;
3757;SDS011;1894;51.038;13.692;2023-06-14T00:33:56;4.00;;;2.33;;
3757;SDS011;1894;51.038;13.692;2023-06-14T00:36:23;3.63;;;2.70;;
3757;SDS011;1894;51.038;13.692;2023-06-14T00:38:51;4.43;;;2.20;;
3757;SDS011;1894;51.038;13.692;2023-06-14T00:41:18;3.90;;;2.10;;
3757;SDS011;1894;51.038;13.692;2023-06-14T00:43:45;3.87;;;2.30;;
3757;SDS011;1894;51.038;13.692;2023-06-14T00:46:14;2.23;;;2.03;;
3757;SDS011;1894;51.038;13.692;2023-06-14T00:48:41;7.93;;;2.57;;
3757;SDS011;1894;51.038;13.692;2023-06-14T00:51:08;4.53;;;2.93;;
3757;SDS011;1894;51.038;13.692;2023-06-14T00:53:37;5.93;;;2.93;;
3757;SDS011;1894;51.038;13.692;2023-06-14T00:56:06;2.67;;;2.30;;
3757;SDS011;1894;51.038;13.692;2023-06-14T00:58:33;3.20;;;2.73;;
3757;SDS011;1894;51.038;13.692;2023-06-14T01:01:00;3.53;;;3.13;;
3757;SDS011;1894;51.038;13.692;2023-06-14T01:03:28;3.20;;;2.23;;
3757;SDS011;1894;51.038;13.692;2023-06-14T01:05:59;2.93;;;2.50;;
3757;SDS011;1894;51.038;13.692;2023-06-14T01:11:28;3.23;;;2.20;;
3757;SDS011;1894;51.038;13.692;2023-06-14T01:14:02;5.23;;;3.00;;
3757;SDS011;1894;51.038;13.692;2023-06-14T01:16:30;3.30;;;2.50;;
3757;SDS011;1894;51.038;13.692;2023-06-14T01:18:58;2.90;;;2.40;;
3757;SDS011;1894;51.038;13.692;2023-06-14T01:21:26;6.50;;;2.83;;
3757;SDS011;1894;51.038;13.692;2023-06-14T01:23:54;50.27;;;3.60;;
3757;SDS011;1894;51.038;13.692;2023-06-14T01:26:25;4.50;;;2.63;;
3757;SDS011;1894;51.038;13.692;2023-06-14T01:28:58;4.50;;;2.53;;
3757;SDS011;1894;51.038;13.692;2023-06-14T01:31:25;8.97;;;2.97;;
3757;SDS011;1894;51.038;13.692;2023-06-14T01:33:53;5.67;;;2.80;;
3757;SDS011;1894;51.038;13.692;2023-06-14T01:36:22;3.90;;;2.63;;
3757;SDS011;1894;51.038;13.692;2023-06-14T01:38:56;3.40;;;2.93;;
3757;SDS011;1894;51.038;13.692;2023-06-14T01:41:26;4.30;;;3.03;;
3757;SDS011;1894;51.038;13.692;2023-06-14T01:43:54;5.87;;;3.23;;
3757;SDS011;1894;51.038;13.692;2023-06-14T01:46:23;2.90;;;2.67;;
3757;SDS011;1894;51.038;13.692;2023-06-14T01:48:53;3.47;;;2.80;;
3757;SDS011;1894;51.038;13.692;2023-06-14T01:51:20;5.40;;;3.37;;
3757;SDS011;1894;51.038;13.692;2023-06-14T01:53:47;6.23;;;2.73;;
3757;SDS011;1894;51.038;13.692;2023-06-14T01:56:15;4.77;;;3.37;;
3757;SDS011;1894;51.038;13.692;2023-06-14T01:58:42;4.50;;;3.60;;
3757;SDS011;1894;51.038;13.692;2023-06-14T02:01:09;3.27;;;2.97;;
3757;SDS011;1894;51.038;13.692;2023-06-14T02:03:38;2.97;;;2.70;;
3757;SDS011;1894;51.038;13.692;2023-06-14T02:06:05;7.13;;;2.90;;
3757;SDS011;1894;51.038;13.692;2023-06-14T02:08:32;5.80;;;2.80;;
3757;SDS011;1894;51.038;13.692;2023-06-14T02:10:59;4.50;;;2.97;;
3757;SDS011;1894;51.038;13.692;2023-06-14T02:13:27;3.60;;;3.30;;
3757;SDS011;1894;51.038;13.692;2023-06-14T02:15:54;6.10;;;3.17;;
3757;SDS011;1894;51.038;13.692;2023-06-14T02:18:22;4.00;;;3.23;;
3757;SDS011;1894;51.038;13.692;2023-06-14T02:20:49;2.70;;;2.50;;
3757;SDS011;1894;51.038;13.692;2023-06-14T02:23:16;3.37;;;3.07;;
3757;SDS011;1894;51.038;13.692;2023-06-14T02:25:44;3.80;;;3.17;;
3757;SDS011;1894;51.038;13.692;2023-06-14T02:28:12;4.37;;;3.10;;
3757;SDS011;1894;51.038;13.692;2023-06-14T02:30:40;5.47;;;3.53;;
3757;SDS011;1894;51.038;13.692;2023-06-14T02:33:07;5.07;;;3.30;;
3757;SDS011;1894;51.038;13.692;2023-06-14T02:35:34;5.17;;;3.87;;
3757;SDS011;1894;51.038;13.692;2023-06-14T02:38:01;4.93;;;3.43;;
3757;SDS011;1894;51.038;13.692;2023-06-14T02:40:28;5.00;;;3.67;;
3757;SDS011;1894;51.038;13.692;2023-06-14T02:42:56;9.07;;;4.17;;
3757;SDS011;1894;51.038;13.692;2023-06-14T02:45:23;4.73;;;3.60;;
3757;SDS011;1894;51.038;13.692;2023-06-14T02:47:50;3.87;;;3.50;;
3757;SDS011;1894;51.038;13.692;2023-06-14T02:50:18;4.50;;;3.47;;
3757;SDS011;1894;51.038;13.692;2023-06-14T02:52:45;4.83;;;3.03;;
3757;SDS011;1894;51.038;13.692;2023-06-14T02:55:12;6.40;;;3.87;;
3757;SDS011;1894;51.038;13.692;2023-06-14T02:57:40;6.97;;;3.90;;
3757;SDS011;1894;51.038;13.692;2023-06-14T03:00:09;5.13;;;3.40;;
3757;SDS011;1894;51.038;13.692;2023-06-14T03:02:42;3.60;;;3.30;;
3757;SDS011;1894;51.038;13.692;2023-06-14T03:05:10;6.90;;;4.40;;
3757;SDS011;1894;51.038;13.692;2023-06-14T03:07:40;6.70;;;4.10;;
3757;SDS011;1894;51.038;13.692;2023-06-14T03:10:08;5.23;;;3.90;;
3757;SDS011;1894;51.038;13.692;2023-06-14T03:12:38;8.00;;;3.90;;
3757;SDS011;1894;51.038;13.692;2023-06-14T03:15:07;4.50;;;3.80;;
3757;SDS011;1894;51.038;13.692;2023-06-14T03:17:38;5.30;;;4.40;;
3757;SDS011;1894;51.038;13.692;2023-06-14T03:20:07;6.40;;;3.50;;
3757;SDS011;1894;51.038;13.692;2023-06-14T03:22:35;5.53;;;3.33;;
3757;SDS011;1894;51.038;13.692;2023-06-14T03:25:02;4.83;;;4.20;;
3757;SDS011;1894;51.038;13.692;2023-06-14T03:27:34;7.20;;;3.67;;
3757;SDS011;1894;51.038;13.692;2023-06-14T03:30:02;3.70;;;3.40;;
3757;SDS011;1894;51.038;13.692;2023-06-14T03:32:31;4.90;;;3.97;;
3757;SDS011;1894;51.038;13.692;2023-06-14T03:35:00;5.80;;;4.00;;
3757;SDS011;1894;51.038;13.692;2023-06-14T03:37:27;4.30;;;3.90;;
3757;SDS011;1894;51.038;13.692;2023-06-14T03:39:54;5.37;;;3.70;;
3757;SDS011;1894;51.038;13.692;2023-06-14T03:42:23;4.47;;;3.03;;
3757;SDS011;1894;51.038;13.692;2023-06-14T03:44:52;8.97;;;3.57;;
3757;SDS011;1894;51.038;13.692;2023-06-14T03:47:21;4.30;;;3.43;;
3757;SDS011;1894;51.038;13.692;2023-06-14T03:49:48;5.83;;;3.80;;
3757;SDS011;1894;51.038;13.692;2023-06-14T03:52:15;6.03;;;4.20;;
3757;SDS011;1894;51.038;13.692;2023-06-14T03:54:45;6.47;;;3.97;;
3757;SDS011;1894;51.038;13.692;2023-06-14T03:57:17;7.90;;;3.97;;
3757;SDS011;1894;51.038;13.692;2023-06-14T03:59:46;3.60;;;3.23;;
3757;SDS011;1894;51.038;13.692;2023-06-14T04:02:13;4.10;;;3.13;;
3757;SDS011;1894;51.038;13.692;2023-06-14T04:04:44;4.40;;;4.00;;
3757;SDS011;1894;51.038;13.692;2023-06-14T04:07:12;4.83;;;3.23;;
3757;SDS011;1894;51.038;13.692;2023-06-14T04:09:39;6.23;;;3.50;;
3757;SDS011;1894;51.038;13.692;2023-06-14T04:12:07;5.17;;;3.37;;
3757;SDS011;1894;51.038;13.692;2023-06-14T04:14:40;3.80;;;3.40;;
3757;SDS011;1894;51.038;13.692;2023-06-14T04:17:09;4.80;;;3.33;;
3757;SDS011;1894;51.038;13.692;2023-06-14T04:19:38;6.43;;;4.07;;
3757;SDS011;1894;51.038;13.692;2023-06-14T04:22:05;5.73;;;3.30;;
3757;SDS011;1894;51.038;13.692;2023-06-14T04:24:34;5.10;;;4.60;;
3757;SDS011;1894;51.038;13.692;2023-06-14T04:27:02;4.23;;;3.83;;
3757;SDS011;1894;51.038;13.692;2023-06-14T04:29:30;6.00;;;4.20;;
3757;SDS011;1894;51.038;13.692;2023-06-14T04:32:03;8.43;;;4.40;;
3757;SDS011;1894;51.038;13.692;2023-06-14T04:34:32;6.93;;;4.10;;
3757;SDS011;1894;51.038;13.692;2023-06-14T04:37:02;8.80;;;4.33;;
3757;SDS011;1894;51.038;13.692;2023-06-14T04:39:34;8.70;;;4.80;;
3757;SDS011;1894;51.038;13.692;2023-06-14T04:42:01;4.50;;;3.50;;
3757;SDS011;1894;51.038;13.692;2023-06-14T04:44:32;10.43;;;4.43;;
3757;SDS011;1894;51.038;13.692;2023-06-14T04:47:01;5.87;;;4.50;;
3757;SDS011;1894;51.038;13.692;2023-06-14T04:49:28;7.50;;;4.17;;
3757;SDS011;1894;51.038;13.692;2023-06-14T04:51:59;6.70;;;3.47;;
3757;SDS011;1894;51.038;13.692;2023-06-14T04:54:40;6.80;;;3.90;;
3757;SDS011;1894;51.038;13.692;2023-06-14T04:57:15;5.70;;;4.23;;
3757;SDS011;1894;51.038;13.692;2023-06-14T04:59:47;10.03;;;4.93;;
3757;SDS011;1894;51.038;13.692;2023-06-14T05:02:15;9.03;;;4.00;;
3757;SDS011;1894;51.038;13.692;2023-06-14T05:04:42;10.30;;;4.30;;
3757;SDS011;1894;51.038;13.692;2023-06-14T05:07:10;9.50;;;4.60;;
3757;SDS011;1894;51.038;13.692;2023-06-14T05:09:37;5.73;;;4.30;;
3757;SDS011;1894;51.038;13.692;2023-06-14T05:12:05;5.80;;;4.20;;
3757;SDS011;1894;51.038;13.692;2023-06-14T05:14:36;5.33;;;4.07;;
3757;SDS011;1894;51.038;13.692;2023-06-14T05:17:05;6.20;;;5.60;;
3757;SDS011;1894;51.038;13.692;2023-06-14T05:19:32;6.00;;;4.87;;
3757;SDS011;1894;51.038;13.692;2023-06-14T05:21:59;6.73;;;4.57;;
3757;SDS011;1894;51.038;13.692;2023-06-14T05:24:27;7.13;;;5.20;;
3757;SDS011;1894;51.038;13.692;2023-06-14T05:26:57;7.03;;;4.93;;
3757;SDS011;1894;51.038;13.692;2023-06-14T05:29:24;8.13;;;5.00;;
3757;SDS011;1894;51.038;13.692;2023-06-14T05:31:55;5.67;;;5.17;;
3757;SDS011;1894;51.038;13.692;2023-06-14T05:34:23;9.77;;;4.60;;
3757;SDS011;1894;51.038;13.692;2023-06-14T05:36:50;7.13;;;4.70;;
3757;SDS011;1894;51.038;13.692;2023-06-14T05:39:17;6.53;;;4.20;;
3757;SDS011;1894;51.038;13.692;2023-06-14T05:41:45;5.53;;;4.70;;
3757;SDS011;1894;51.038;13.692;2023-06-14T05:44:17;5.37;;;4.87;;
3757;SDS011;1894;51.038;13.692;2023-06-14T05:46:44;7.43;;;6.10;;
3757;SDS011;1894;51.038;13.692;2023-06-14T05:49:11;7.17;;;4.23;;
3757;SDS011;1894;51.038;13.692;2023-06-14T05:51:38;12.30;;;7.60;;
3757;SDS011;1894;51.038;13.692;2023-06-14T05:54:06;5.87;;;4.90;;
3757;SDS011;1894;51.038;13.692;2023-06-14T05:56:33;10.57;;;7.93;;
3757;SDS011;1894;51.038;13.692;2023-06-14T05:59:01;8.43;;;5.30;;
3757;SDS011;1894;51.038;13.692;2023-06-14T06:01:28;6.93;;;4.83;;
3757;SDS011;1894;51.038;13.692;2023-06-14T06:03:55;6.20;;;4.90;;
3757;SDS011;1894;51.038;13.692;2023-06-14T06:06:22;14.57;;;9.10;;
3757;SDS011;1894;51.038;13.692;2023-06-14T06:08:49;14.33;;;5.07;;
3757;SDS011;1894;51.038;13.692;2023-06-14T06:11:16;11.23;;;5.93;;
3757;SDS011;1894;51.038;13.692;2023-06-14T06:13:43;10.27;;;6.07;;
3757;SDS011;1894;51.038;13.692;2023-06-14T06:16:10;13.40;;;5.53;;
3757;SDS011;1894;51.038;13.692;2023-06-14T06:18:37;5.60;;;4.47;;
3757;SDS011;1894;51.038;13.692;2023-06-14T06:21:05;7.60;;;5.70;;
3757;SDS011;1894;51.038;13.692;2023-06-14T06:23:33;8.80;;;5.00;;
3757;SDS011;1894;51.038;13.692;2023-06-14T06:26:00;5.20;;;4.70;;
3757;SDS011;1894;51.038;13.692;2023-06-14T06:28:27;10.67;;;5.60;;
3757;SDS011;1894;51.038;13.692;2023-06-14T06:30:54;8.90;;;5.90;;
3757;SDS011;1894;51.038;13.692;2023-06-14T06:33:21;8.40;;;5.40;;
3757;SDS011;1894;51.038;13.692;2023-06-14T06:35:48;9.33;;;6.83;;
3757;SDS011;1894;51.038;13.692;2023-06-14T06:38:15;5.87;;;5.23;;
3757;SDS011;1894;51.038;13.692;2023-06-14T06:40:42;6.93;;;5.00;;
3757;SDS011;1894;51.038;13.692;2023-06-14T06:43:09;6.70;;;6.00;;
3757;SDS011;1894;51.038;13.692;2023-06-14T06:45:45;16.83;;;10.67;;
3757;SDS011;1894;51.038;13.692;2023-06-14T06:48:12;9.63;;;5.17;;
3757;SDS011;1894;51.038;13.692;2023-06-14T06:50:39;5.10;;;4.60;;
3757;SDS011;1894;51.038;13.692;2023-06-14T06:53:06;5.23;;;4.17;;
3757;SDS011;1894;51.038;13.692;2023-06-14T06:55:33;6.43;;;5.63;;
3757;SDS011;1894;51.038;13.692;2023-06-14T06:58:00;5.57;;;5.07;;
3757;SDS011;1894;51.038;13.692;2023-06-14T07:00:27;5.20;;;4.67;;
3757;SDS011;1894;51.038;13.692;2023-06-14T07:02:55;8.90;;;6.60;;
3757;SDS011;1894;51.038;13.692;2023-06-14T07:05:23;6.47;;;5.20;;
3757;SDS011;1894;51.038;13.692;2023-06-14T07:07:50;13.70;;;4.90;;
3757;SDS011;1894;51.038;13.692;2023-06-14T07:10:17;7.50;;;4.63;;
3757;SDS011;1894;51.038;13.692;2023-06-14T07:12:44;9.33;;;5.33;;
3757;SDS011;1894;51.038;13.692;2023-06-14T07:15:12;6.40;;;5.20;;
3757;SDS011;1894;51.038;13.692;2023-06-14T07:17:39;8.93;;;5.13;;
3757;SDS011;1894;51.038;13.692;2023-06-14T07:20:07;5.17;;;4.53;;
3757;SDS011;1894;51.038;13.692;2023-06-14T07:22:35;6.60;;;3.83;;
3757;SDS011;1894;51.038;13.692;2023-06-14T07:25:02;5.40;;;4.87;;
3757;SDS011;1894;51.038;13.692;2023-06-14T07:27:30;7.30;;;4.10;;
3757;SDS011;1894;51.038;13.692;2023-06-14T07:29:57;6.10;;;4.57;;
3757;SDS011;1894;51.038;13.692;2023-06-14T07:32:24;11.20;;;5.47;;
3757;SDS011;1894;51.038;13.692;2023-06-14T07:34:51;5.00;;;4.60;;
3757;SDS011;1894;51.038;13.692;2023-06-14T07:37:18;5.20;;;4.80;;
3757;SDS011;1894;51.038;13.692;2023-06-14T07:39:45;6.33;;;4.50;;
3757;SDS011;1894;51.038;13.692;2023-06-14T07:42:12;5.30;;;4.57;;
3757;SDS011;1894;51.038;13.692;2023-06-14T07:44:39;4.37;;;4.00;;
3757;SDS011;1894;51.038;13.692;2023-06-14T07:47:06;4.10;;;3.70;;
3757;SDS011;1894;51.038;13.692;2023-06-14T07:49:33;7.53;;;4.43;;
3757;SDS011;1894;51.038;13.692;2023-06-14T07:52:00;6.53;;;4.00;;
3757;SDS011;1894;51.038;13.692;2023-06-14T07:54:27;7.00;;;5.13;;
3757;SDS011;1894;51.038;13.692;2023-06-14T07:56:56;5.10;;;4.03;;
3757;SDS011;1894;51.038;13.692;2023-06-14T07:59:23;9.20;;;4.37;;
3757;SDS011;1894;51.038;13.692;2023-06-14T08:01:51;4.80;;;3.67;;
3757;SDS011;1894;51.038;13.692;2023-06-14T08:04:18;7.57;;;3.73;;
3757;SDS011;1894;51.038;13.692;2023-06-14T08:06:45;5.03;;;3.10;;
3757;SDS011;1894;51.038;13.692;2023-06-14T08:09:12;3.47;;;2.87;;
3757;SDS011;1894;51.038;13.692;2023-06-14T08:11:39;3.30;;;3.00;;
3757;SDS011;1894;51.038;13.692;2023-06-14T08:14:06;8.73;;;3.10;;
3757;SDS011;1894;51.038;13.692;2023-06-14T08:16:34;3.57;;;2.80;;
3757;SDS011;1894;51.038;13.692;2023-06-14T08:19:01;4.57;;;2.80;;
3757;SDS011;1894;51.038;13.692;2023-06-14T08:21:28;4.67;;;3.27;;
3757;SDS011;1894;51.038;13.692;2023-06-14T08:23:55;5.30;;;2.60;;
3757;SDS011;1894;51.038;13.692;2023-06-14T08:26:24;4.47;;;2.17;;
3757;SDS011;1894;51.038;13.692;2023-06-14T08:28:55;3.43;;;2.17;;
3757;SDS011;1894;51.038;13.692;2023-06-14T08:31:22;2.53;;;2.33;;
3757;SDS011;1894;51.038;13.692;2023-06-14T08:33:50;6.33;;;2.97;;
3757;SDS011;1894;51.038;13.692;2023-06-14T08:36:17;5.10;;;2.63;;
3757;SDS011;1894;51.038;13.692;2023-06-14T08:38:45;4.97;;;2.77;;
3757;SDS011;1894;51.038;13.692;2023-06-14T08:41:12;4.30;;;2.87;;
3757;SDS011;1894;51.038;13.692;2023-06-14T08:43:47;3.83;;;2.87;;
3757;SDS011;1894;51.038;13.692;2023-06-14T08:46:15;3.20;;;2.50;;
3757;SDS011;1894;51.038;13.692;2023-06-14T08:48:48;2.93;;;1.80;;
3757;SDS011;1894;51.038;13.692;2023-06-14T08:51:19;2.50;;;2.20;;
3757;SDS011;1894;51.038;13.692;2023-06-14T08:53:53;3.93;;;2.23;;
3757;SDS011;1894;51.038;13.692;2023-06-14T08:56:25;3.63;;;1.73;;
3757;SDS011;1894;51.038;13.692;2023-06-14T08:58:55;2.33;;;1.93;;
3757;SDS011;1894;51.038;13.692;2023-06-14T09:01:23;2.10;;;1.90;;
3757;SDS011;1894;51.038;13.692;2023-06-14T09:03:51;2.80;;;2.23;;
3757;SDS011;1894;51.038;13.692;2023-06-14T09:06:18;2.67;;;1.80;;
3757;SDS011;1894;51.038;13.692;2023-06-14T09:08:49;4.00;;;1.90;;
3757;SDS011;1894;51.038;13.692;2023-06-14T09:11:18;6.93;;;2.57;;
3757;SDS011;1894;51.038;13.692;2023-06-14T09:13:46;5.70;;;2.00;;
3757;SDS011;1894;51.038;13.692;2023-06-14T09:16:13;2.93;;;2.30;;
3757;SDS011;1894;51.038;13.692;2023-06-14T09:18:42;3.30;;;2.80;;
3757;SDS011;1894;51.038;13.692;2023-06-14T09:21:11;7.40;;;2.60;;
3757;SDS011;1894;51.038;13.692;2023-06-14T09:23:42;3.40;;;3.00;;
3757;SDS011;1894;51.038;13.692;2023-06-14T09:26:14;7.37;;;3.13;;
3757;SDS011;1894;51.038;13.692;2023-06-14T09:28:46;3.13;;;2.60;;
3757;SDS011;1894;51.038;13.692;2023-06-14T09:31:15;3.70;;;3.20;;
3757;SDS011;1894;51.038;13.692;2023-06-14T09:33:47;3.90;;;3.50;;
3757;SDS011;1894;51.038;13.692;2023-06-14T09:36:21;6.27;;;4.47;;
3757;SDS011;1894;51.038;13.692;2023-06-14T09:38:52;4.17;;;3.23;;
3757;SDS011;1894;51.038;13.692;2023-06-14T09:41:30;3.77;;;3.37;;
3757;SDS011;1894;51.038;13.692;2023-06-14T09:43:59;6.30;;;3.57;;
3757;SDS011;1894;51.038;13.692;2023-06-14T09:46:27;4.17;;;3.40;;
3757;SDS011;1894;51.038;13.692;2023-06-14T09:48:58;5.10;;;4.20;;
3757;SDS011;1894;51.038;13.692;2023-06-14T09:51:26;4.13;;;3.27;;
3757;SDS011;1894;51.038;13.692;2023-06-14T09:53:55;3.47;;;3.17;;
3757;SDS011;1894;51.038;13.692;2023-06-14T09:56:28;4.70;;;3.80;;
3757;SDS011;1894;51.038;13.692;2023-06-14T09:58:57;3.60;;;3.30;;
3757;SDS011;1894;51.038;13.692;2023-06-14T10:01:34;5.47;;;4.20;;
3757;SDS011;1894;51.038;13.692;2023-06-14T10:04:06;4.37;;;3.33;;
3757;SDS011;1894;51.038;13.692;2023-06-14T10:06:38;10.17;;;3.27;;
3757;SDS011;1894;51.038;13.692;2023-06-14T10:09:10;6.70;;;4.07;;
3757;SDS011;1894;51.038;13.692;2023-06-14T10:11:38;4.43;;;4.03;;
3757;SDS011;1894;51.038;13.692;2023-06-14T10:14:11;3.70;;;3.20;;
3757;SDS011;1894;51.038;13.692;2023-06-14T10:16:59;12.33;;;3.43;;
3757;SDS011;1894;51.038;13.692;2023-06-14T10:19:44;4.90;;;3.60;;
3757;SDS011;1894;51.038;13.692;2023-06-14T10:22:32;5.63;;;3.43;;
3757;SDS011;1894;51.038;13.692;2023-06-14T10:25:06;3.53;;;2.73;;
3757;SDS011;1894;51.038;13.692;2023-06-14T10:27:38;6.50;;;2.43;;
3757;SDS011;1894;51.038;13.692;2023-06-14T10:30:12;3.77;;;2.47;;
3757;SDS011;1894;51.038;13.692;2023-06-14T10:35:34;4.03;;;2.23;;
3757;SDS011;1894;51.038;13.692;2023-06-14T10:38:09;3.00;;;2.13;;
3757;SDS011;1894;51.038;13.692;2023-06-14T10:40:38;2.47;;;2.30;;
3757;SDS011;1894;51.038;13.692;2023-06-14T10:43:23;2.60;;;2.00;;
3757;SDS011;1894;51.038;13.692;2023-06-14T10:48:44;4.23;;;2.10;;
3757;SDS011;1894;51.038;13.692;2023-06-14T10:51:18;8.87;;;2.50;;
3757;SDS011;1894;51.038;13.692;2023-06-14T10:53:48;4.20;;;2.47;;
3757;SDS011;1894;51.038;13.692;2023-06-14T10:58:56;4.50;;;2.90;;
3757;SDS011;1894;51.038;13.692;2023-06-14T11:04:09;4.73;;;2.30;;
3757;SDS011;1894;51.038;13.692;2023-06-14T11:06:46;4.00;;;3.10;;
3757;SDS011;1894;51.038;13.692;2023-06-14T11:12:20;2.57;;;2.37;;
3757;SDS011;1894;51.038;13.692;2023-06-14T11:14:49;4.73;;;3.07;;
3757;SDS011;1894;51.038;13.692;2023-06-14T11:17:17;2.93;;;2.73;;
3757;SDS011;1894;51.038;13.692;2023-06-14T11:19:44;3.13;;;2.80;;
3757;SDS011;1894;51.038;13.692;2023-06-14T11:22:11;4.13;;;3.03;;
3757;SDS011;1894;51.038;13.692;2023-06-14T11:24:42;3.73;;;3.30;;
3757;SDS011;1894;51.038;13.692;2023-06-14T11:27:09;3.47;;;3.17;;
3757;SDS011;1894;51.038;13.692;2023-06-14T11:29:37;4.93;;;2.60;;
3757;SDS011;1894;51.038;13.692;2023-06-14T11:32:06;3.73;;;2.80;;
3757;SDS011;1894;51.038;13.692;2023-06-14T11:34:38;3.90;;;3.40;;
3757;SDS011;1894;51.038;13.692;2023-06-14T11:37:05;3.63;;;3.33;;
3757;SDS011;1894;51.038;13.692;2023-06-14T11:39:33;3.03;;;2.80;;
3757;SDS011;1894;51.038;13.692;2023-06-14T11:42:00;4.30;;;3.30;;
3757;SDS011;1894;51.038;13.692;2023-06-14T11:44:28;3.70;;;2.97;;
3757;SDS011;1894;51.038;13.692;2023-06-14T11:46:56;5.40;;;3.53;;
3757;SDS011;1894;51.038;13.692;2023-06-14T11:49:24;3.83;;;3.20;;
3757;SDS011;1894;51.038;13.692;2023-06-14T11:51:53;3.17;;;2.87;;
3757;SDS011;1894;51.038;13.692;2023-06-14T11:54:21;5.03;;;3.03;;
3757;SDS011;1894;51.038;13.692;2023-06-14T11:56:48;3.83;;;3.13;;
3757;SDS011;1894;51.038;13.692;2023-06-14T11:59:15;3.37;;;3.07;;
3757;SDS011;1894;51.038;13.692;2023-06-14T12:01:43;3.50;;;2.40;;
3757;SDS011;1894;51.038;13.692;2023-06-14T12:04:10;3.87;;;3.47;;
3757;SDS011;1894;51.038;13.692;2023-06-14T12:06:37;3.77;;;2.97;;
3757;SDS011;1894;51.038;13.692;2023-06-14T12:09:06;6.47;;;3.00;;
3757;SDS011;1894;51.038;13.692;2023-06-14T12:11:39;4.87;;;2.53;;
3757;SDS011;1894;51.038;13.692;2023-06-14T12:14:08;3.10;;;2.87;;
3757;SDS011;1894;51.038;13.692;2023-06-14T12:16:36;3.30;;;2.20;;
3757;SDS011;1894;51.038;13.692;2023-06-14T12:19:15;13.83;;;2.80;;
3757;SDS011;1894;51.038;13.692;2023-06-14T12:21:45;3.87;;;2.03;;
3757;SDS011;1894;51.038;13.692;2023-06-14T12:24:17;5.40;;;3.00;;
3757;SDS011;1894;51.038;13.692;2023-06-14T12:26:44;4.53;;;2.50;;
3757;SDS011;1894;51.038;13.692;2023-06-14T12:29:12;6.10;;;2.93;;
3757;SDS011;1894;51.038;13.692;2023-06-14T12:31:39;8.03;;;3.10;;
3757;SDS011;1894;51.038;13.692;2023-06-14T12:34:07;3.50;;;3.07;;
3757;SDS011;1894;51.038;13.692;2023-06-14T12:36:35;3.43;;;2.23;;
3757;SDS011;1894;51.038;13.692;2023-06-14T12:39:08;3.63;;;2.77;;
3757;SDS011;1894;51.038;13.692;2023-06-14T12:41:35;4.90;;;2.87;;
3757;SDS011;1894;51.038;13.692;2023-06-14T12:44:03;3.30;;;2.43;;
3757;SDS011;1894;51.038;13.692;2023-06-14T12:46:31;3.37;;;2.43;;
3757;SDS011;1894;51.038;13.692;2023-06-14T12:48:58;3.33;;;2.70;;
3757;SDS011;1894;51.038;13.692;2023-06-14T12:51:26;4.23;;;2.50;;
3757;SDS011;1894;51.038;13.692;2023-06-14T12:53:53;3.83;;;2.60;;
3757;SDS011;1894;51.038;13.692;2023-06-14T12:56:21;3.37;;;2.73;;
3757;SDS011;1894;51.038;13.692;2023-06-14T12:58:50;5.50;;;2.53;;
3757;SDS011;1894;51.038;13.692;2023-06-14T13:01:17;3.60;;;3.00;;
3757;SDS011;1894;51.038;13.692;2023-06-14T13:03:46;4.50;;;3.10;;
3757;SDS011;1894;51.038;13.692;2023-06-14T13:06:13;3.37;;;2.53;;
3757;SDS011;1894;51.038;13.692;2023-06-14T13:08:40;2.97;;;2.57;;
3757;SDS011;1894;51.038;13.692;2023-06-14T13:11:07;6.50;;;2.13;;
3757;SDS011;1894;51.038;13.692;2023-06-14T13:13:35;2.00;;;1.90;;
3757;SDS011;1894;51.038;13.692;2023-06-14T13:16:02;3.67;;;2.50;;
3757;SDS011;1894;51.038;13.692;2023-06-14T13:18:29;2.80;;;2.17;;
3757;SDS011;1894;51.038;13.692;2023-06-14T13:20:56;5.13;;;2.50;;
3757;SDS011;1894;51.038;13.692;2023-06-14T13:23:23;7.33;;;2.40;;
3757;SDS011;1894;51.038;13.692;2023-06-14T13:25:50;4.70;;;2.90;;
3757;SDS011;1894;51.038;13.692;2023-06-14T13:28:17;4.40;;;2.07;;
3757;SDS011;1894;51.038;13.692;2023-06-14T13:30:44;2.83;;;2.20;;
3757;SDS011;1894;51.038;13.692;2023-06-14T13:33:13;2.03;;;1.83;;
3757;SDS011;1894;51.038;13.692;2023-06-14T13:35:40;5.63;;;1.93;;
3757;SDS011;1894;51.038;13.692;2023-06-14T13:38:09;5.97;;;2.60;;
3757;SDS011;1894;51.038;13.692;2023-06-14T13:40:37;5.63;;;2.60;;
3757;SDS011;1894;51.038;13.692;2023-06-14T13:43:05;9.03;;;2.93;;
3757;SDS011;1894;51.038;13.692;2023-06-14T13:45:32;6.33;;;3.10;;
3757;SDS011;1894;51.038;13.692;2023-06-14T13:47:59;5.97;;;3.67;;
3757;SDS011;1894;51.038;13.692;2023-06-14T13:50:27;9.43;;;2.37;;
3757;SDS011;1894;51.038;13.692;2023-06-14T13:52:54;11.00;;;3.20;;
3757;SDS011;1894;51.038;13.692;2023-06-14T13:55:21;3.23;;;2.37;;
3757;SDS011;1894;51.038;13.692;2023-06-14T13:57:49;4.10;;;1.87;;
3757;SDS011;1894;51.038;13.692;2023-06-14T14:00:16;2.17;;;1.93;;
3757;SDS011;1894;51.038;13.692;2023-06-14T14:02:47;4.70;;;1.90;;
3757;SDS011;1894;51.038;13.692;2023-06-14T14:05:17;3.07;;;1.90;;
3757;SDS011;1894;51.038;13.692;2023-06-14T14:07:44;1.53;;;1.43;;
3757;SDS011;1894;51.038;13.692;2023-06-14T14:10:12;4.87;;;1.60;;
3757;SDS011;1894;51.038;13.692;2023-06-14T14:12:48;1.50;;;1.40;;
3757;SDS011;1894;51.038;13.692;2023-06-14T14:15:15;4.33;;;2.27;;
3757;SDS011;1894;51.038;13.692;2023-06-14T14:17:42;7.43;;;2.43;;
3757;SDS011;1894;51.038;13.692;2023-06-14T14:20:10;2.60;;;2.00;;
3757;SDS011;1894;51.038;13.692;2023-06-14T14:22:42;4.47;;;2.53;;
3757;SDS011;1894;51.038;13.692;2023-06-14T14:25:10;4.17;;;2.13;;
3757;SDS011;1894;51.038;13.692;2023-06-14T14:27:37;5.17;;;1.70;;
3757;SDS011;1894;51.038;13.692;2023-06-14T14:30:04;2.10;;;2.00;;
3757;SDS011;1894;51.038;13.692;2023-06-14T14:32:32;2.07;;;1.70;;
3757;SDS011;1894;51.038;13.692;2023-06-14T14:34:59;4.10;;;1.50;;
3757;SDS011;1894;51.038;13.692;2023-06-14T14:37:26;3.33;;;1.87;;
3757;SDS011;1894;51.038;13.692;2023-06-14T14:40:00;3.00;;;1.63;;
3757;SDS011;1894;51.038;13.692;2023-06-14T14:42:27;1.50;;;1.33;;
3757;SDS011;1894;51.038;13.692;2023-06-14T14:44:54;3.13;;;1.43;;
3757;SDS011;1894;51.038;13.692;2023-06-14T14:47:21;2.33;;;1.40;;
3757;SDS011;1894;51.038;13.692;2023-06-14T14:49:49;1.60;;;1.50;;
3757;SDS011;1894;51.038;13.692;2023-06-14T14:52:16;3.43;;;1.57;;
3757;SDS011;1894;51.038;13.692;2023-06-14T14:54:50;5.40;;;2.23;;
3757;SDS011;1894;51.038;13.692;2023-06-14T14:57:18;1.77;;;1.40;;
3757;SDS011;1894;51.038;13.692;2023-06-14T14:59:45;2.70;;;1.53;;
3757;SDS011;1894;51.038;13.692;2023-06-14T15:02:12;2.60;;;1.23;;
3757;SDS011;1894;51.038;13.692;2023-06-14T15:04:39;1.83;;;1.73;;
3757;SDS011;1894;51.038;13.692;2023-06-14T15:07:06;2.03;;;1.50;;
3757;SDS011;1894;51.038;13.692;2023-06-14T15:09:33;1.23;;;1.13;;
3757;SDS011;1894;51.038;13.692;2023-06-14T15:12:01;2.40;;;1.30;;
3757;SDS011;1894;51.038;13.692;2023-06-14T15:14:29;2.50;;;1.53;;
3757;SDS011;1894;51.038;13.692;2023-06-14T15:16:56;1.87;;;1.50;;
3757;SDS011;1894;51.038;13.692;2023-06-14T15:19:25;1.87;;;1.27;;
3757;SDS011;1894;51.038;13.692;2023-06-14T15:21:52;2.50;;;1.60;;
3757;SDS011;1894;51.038;13.692;2023-06-14T15:24:19;3.20;;;1.70;;
3757;SDS011;1894;51.038;13.692;2023-06-14T15:27:06;2.73;;;1.83;;